createdAt,value
2022-09-05T00:00:53.201Z,3.92
2022-09-05T00:04:24.814Z,4.00
2022-09-05T00:08:00.472Z,4.43
2022-09-05T00:11:41.892Z,4.47
2022-09-05T00:15:19.635Z,4.05
2022-09-05T00:21:22.767Z,4.43
2022-09-05T00:24:32.907Z,4.05
2022-09-05T00:26:50.578Z,4.10
2022-09-05T00:31:06.607Z,4.20
2022-09-05T00:34:11.653Z,3.80
2022-09-05T00:37:37.981Z,4.35
2022-09-05T00:41:04.834Z,3.88
2022-09-05T00:44:33.106Z,3.75
2022-09-05T00:48:00.238Z,3.78
2022-09-05T00:51:34.358Z,4.03
2022-09-05T00:55:22.953Z,3.63
2022-09-05T00:59:01.057Z,3.90
2022-09-05T01:02:46.532Z,3.88
2022-09-05T01:06:22.235Z,4.43
2022-09-05T01:09:56.895Z,4.28
2022-09-05T01:13:30.666Z,4.63
2022-09-05T01:17:09.554Z,4.07
2022-09-05T01:20:44.662Z,3.58
2022-09-05T01:24:28.272Z,3.88
2022-09-05T01:29:15.939Z,3.88
2022-09-05T01:31:52.079Z,4.40
2022-09-05T01:35:54.961Z,4.15
2022-09-05T01:40:11.333Z,4.05
2022-09-05T01:43:32.766Z,4.07
2022-09-05T01:47:06.989Z,3.70
2022-09-05T01:50:44.857Z,3.53
2022-09-05T01:54:23.763Z,3.65
2022-09-05T01:57:57.192Z,3.35
2022-09-05T02:01:32.582Z,3.65
2022-09-05T02:05:09.812Z,3.85
2022-09-05T02:08:48.522Z,3.65
2022-09-05T02:12:28.777Z,3.53
2022-09-05T02:16:00.301Z,3.50
2022-09-05T02:19:30.614Z,3.30
2022-09-05T02:23:00.544Z,3.25
2022-09-05T02:26:27.419Z,3.30
2022-09-05T02:29:59.338Z,3.25
2022-09-05T02:33:27.022Z,3.28
2022-09-05T02:36:56.695Z,3.42
2022-09-05T02:45:02.397Z,3.13
2022-09-05T02:45:14.819Z,3.10
2022-09-05T02:47:58.850Z,3.10
2022-09-05T02:57:26.637Z,3.17
2022-09-05T02:57:33.716Z,3.17
2022-09-05T02:59:36.136Z,3.40
2022-09-05T03:03:20.291Z,3.22
2022-09-05T03:06:59.021Z,2.88
2022-09-05T03:11:08.559Z,2.95
2022-09-05T03:15:03.623Z,3.08
2022-09-05T03:19:28.538Z,3.53
2022-09-05T03:23:28.191Z,3.10
2022-09-05T03:27:41.092Z,2.85
2022-09-05T03:31:41.514Z,3.10
2022-09-05T03:35:36.035Z,3.53
2022-09-05T03:39:48.348Z,3.00
2022-09-05T03:43:34.794Z,3.20
2022-09-05T03:47:38.284Z,3.40
2022-09-05T03:57:10.815Z,3.22
2022-09-05T03:57:14.073Z,3.00
2022-09-05T03:59:44.718Z,3.40
2022-09-05T04:08:11.269Z,3.15
2022-09-05T04:08:17.536Z,2.75
2022-09-05T04:10:56.373Z,3.10
2022-09-05T04:14:26.557Z,3.78
2022-09-05T04:17:53.784Z,2.90
2022-09-05T04:21:30.382Z,2.90
2022-09-05T04:25:04.291Z,3.30
2022-09-05T04:28:49.990Z,2.92
2022-09-05T04:32:27.297Z,3.13
2022-09-05T04:35:59.107Z,3.03
2022-09-05T04:39:28.947Z,2.55
2022-09-05T04:42:52.996Z,2.90
2022-09-05T04:46:22.787Z,3.05
2022-09-05T04:49:51.751Z,2.78
2022-09-05T04:53:25.342Z,3.15
2022-09-05T04:56:54.098Z,2.75
2022-09-05T05:06:02.016Z,2.90
2022-09-05T05:06:15.298Z,2.60
2022-09-05T05:08:00.263Z,2.67
2022-09-05T05:17:40.395Z,2.90
2022-09-05T05:18:11.989Z,2.60
2022-09-05T05:19:15.669Z,2.65
2022-09-05T05:22:52.727Z,2.70
2022-09-05T05:26:22.723Z,2.80
2022-09-05T05:29:51.529Z,2.75
2022-09-05T05:33:26.397Z,2.10
2022-09-05T05:36:58.540Z,2.03
2022-09-05T05:40:27.473Z,2.70
2022-09-05T05:43:52.490Z,2.47
2022-09-05T05:47:28.400Z,2.50
2022-09-05T05:51:06.499Z,2.28
2022-09-05T05:54:38.372Z,2.53
2022-09-05T05:58:16.466Z,2.20
2022-09-05T06:02:29.101Z,2.78
2022-09-05T06:06:09.508Z,2.30
2022-09-05T06:14:48.078Z,2.40
2022-09-05T06:15:01.459Z,2.38
2022-09-05T06:18:42.620Z,2.30
2022-09-05T06:22:45.250Z,2.45
2022-09-05T06:26:32.451Z,2.22
2022-09-05T06:30:01.099Z,2.20
2022-09-05T06:33:39.414Z,2.10
2022-09-05T06:37:11.665Z,2.25
2022-09-05T06:40:40.586Z,2.58
2022-09-05T06:44:24.104Z,2.20
2022-09-05T06:47:56.922Z,2.38
2022-09-05T06:51:44.729Z,2.40
2022-09-05T06:55:33.736Z,2.90
2022-09-05T06:59:34.409Z,2.45
2022-09-05T07:03:22.986Z,2.28
2022-09-05T07:07:06.289Z,2.35
2022-09-05T07:10:39.473Z,2.85
2022-09-05T07:14:05.759Z,2.60
2022-09-05T07:18:06.143Z,2.70
2022-09-05T07:21:31.762Z,2.40
2022-09-05T07:24:58.445Z,2.40
2022-09-05T07:28:29.136Z,2.80
2022-09-05T07:31:55.440Z,2.20
2022-09-05T07:35:21.740Z,3.00
2022-09-05T07:39:02.416Z,2.63
2022-09-05T07:42:38.636Z,2.60
2022-09-05T07:46:11.754Z,2.80
2022-09-05T07:49:39.895Z,2.70
2022-09-05T07:57:09.220Z,2.85
2022-09-05T08:00:55.633Z,2.60
2022-09-05T08:04:26.474Z,2.35
2022-09-05T08:07:52.323Z,2.53
2022-09-05T08:11:23.314Z,2.97
2022-09-05T08:15:01.977Z,2.85
2022-09-05T08:18:35.212Z,2.50
2022-09-05T08:22:00.034Z,2.58
2022-09-05T08:25:37.583Z,2.75
2022-09-05T08:29:20.308Z,2.80
2022-09-05T08:32:49.710Z,2.95
2022-09-05T08:36:25.059Z,2.80
2022-09-05T08:39:50.497Z,2.83
2022-09-05T08:46:35.564Z,2.80
2022-09-05T08:47:31.983Z,3.08
2022-09-05T08:51:18.570Z,2.67
2022-09-05T08:55:04.120Z,3.15
2022-09-05T08:59:27.220Z,2.70
2022-09-05T09:03:03.806Z,2.80
2022-09-05T09:07:47.746Z,2.80
2022-09-05T09:10:55.459Z,3.10
2022-09-05T09:14:31.501Z,3.50
2022-09-05T09:17:54.419Z,2.95
2022-09-05T09:21:30.251Z,2.50
2022-09-05T09:25:14.756Z,2.90
2022-09-05T09:28:53.837Z,3.00
2022-09-05T09:32:20.181Z,3.10
2022-09-05T09:35:50.866Z,3.28
2022-09-05T09:39:38.283Z,2.80
2022-09-05T09:43:09.366Z,2.90
2022-09-05T09:46:42.052Z,3.08
2022-09-05T09:50:22.596Z,2.80
2022-09-05T09:54:08.031Z,2.92
2022-09-05T09:58:03.853Z,2.88
2022-09-05T10:01:37.327Z,2.80
2022-09-05T10:10:34.599Z,3.10
2022-09-05T10:10:45.543Z,2.65
2022-09-05T10:13:23.945Z,2.50
2022-09-05T10:17:14.190Z,3.00
2022-09-05T10:21:15.230Z,2.97
2022-09-05T10:25:19.473Z,2.88
2022-09-05T10:28:54.819Z,2.95
2022-09-05T10:35:08.587Z,3.00
2022-09-05T10:36:25.014Z,2.55
2022-09-05T10:39:51.093Z,2.47
2022-09-05T10:43:19.804Z,2.65
2022-09-05T10:46:53.175Z,2.72
2022-09-05T10:50:28.094Z,2.90
2022-09-05T10:54:08.938Z,2.75
2022-09-05T10:57:41.654Z,2.63
2022-09-05T11:02:22.124Z,2.78
2022-09-05T11:04:59.468Z,3.38
2022-09-05T11:08:34.062Z,2.45
2022-09-05T11:12:08.107Z,2.88
2022-09-05T11:15:43.949Z,2.85
2022-09-05T11:19:19.724Z,3.28
2022-09-05T11:22:47.297Z,3.10
2022-09-05T11:26:25.438Z,3.40
2022-09-05T11:29:50.270Z,2.95
2022-09-05T11:39:46.644Z,3.10
2022-09-05T11:40:04.009Z,3.20
2022-09-05T11:41:31.375Z,3.47
2022-09-05T11:45:14.802Z,3.30
2022-09-05T11:49:00.338Z,3.22
2022-09-05T11:52:58.100Z,3.28
2022-09-05T11:57:31.837Z,3.40
2022-09-05T12:00:45.243Z,3.15
2022-09-05T12:04:21.709Z,2.80
2022-09-05T12:07:57.506Z,3.10
2022-09-05T12:11:32.545Z,3.20
2022-09-05T12:15:08.577Z,2.80
2022-09-05T12:18:41.337Z,3.10
2022-09-05T12:22:31.454Z,2.97
2022-09-05T12:27:39.963Z,3.05
2022-09-05T12:29:52.274Z,3.47
2022-09-05T12:36:03.703Z,3.03
2022-09-05T12:40:53.428Z,3.15
2022-09-05T12:41:45.083Z,3.05
2022-09-05T12:45:09.694Z,3.03
2022-09-05T12:48:39.805Z,3.38
2022-09-05T12:52:05.196Z,3.47
2022-09-05T12:55:34.489Z,2.55
2022-09-05T13:02:57.717Z,3.33
2022-09-05T13:03:13.936Z,3.08
2022-09-05T13:06:35.387Z,2.85
2022-09-05T13:12:12.323Z,3.47
2022-09-05T13:14:56.436Z,3.10
2022-09-05T13:17:44.245Z,3.63
2022-09-05T13:21:13.462Z,3.40
2022-09-05T13:24:41.532Z,2.70
2022-09-05T13:28:08.497Z,3.78
2022-09-05T13:37:59.886Z,3.67
2022-09-05T13:38:03.041Z,3.40
2022-09-05T13:39:50.658Z,3.35
2022-09-05T13:43:15.007Z,3.22
2022-09-05T13:46:45.370Z,2.90
2022-09-05T13:50:22.429Z,3.17
2022-09-05T13:53:52.538Z,3.30
2022-09-05T13:57:34.875Z,3.17
2022-09-05T14:01:22.656Z,3.38
2022-09-05T14:05:19.504Z,3.38
2022-09-05T14:12:54.772Z,3.45
2022-09-05T14:16:28.681Z,4.10
2022-09-05T14:20:18.754Z,3.20
2022-09-05T14:23:48.599Z,3.10
2022-09-05T14:27:15.314Z,3.20
2022-09-05T14:32:00.936Z,3.20
2022-09-05T14:37:43.038Z,3.08
2022-09-05T14:38:57.702Z,3.10
2022-09-05T14:42:37.422Z,3.50
2022-09-05T14:46:13.478Z,3.03
2022-09-05T14:50:03.987Z,3.63
2022-09-05T14:59:55.432Z,3.25
2022-09-05T15:02:55.255Z,3.60
2022-09-05T15:04:56.470Z,3.20
2022-09-05T15:11:42.658Z,4.15
2022-09-05T15:12:33.002Z,3.45
2022-09-05T15:16:09.210Z,3.10
2022-09-05T15:20:05.478Z,3.13
2022-09-05T15:23:32.277Z,3.50
2022-09-05T15:26:58.545Z,3.05
2022-09-05T15:30:25.698Z,3.30
2022-09-05T15:33:57.817Z,3.40
2022-09-05T15:37:29.562Z,3.30
2022-09-05T15:41:22.930Z,3.40
2022-09-05T15:45:09.879Z,3.42
2022-09-05T15:48:34.783Z,3.50
2022-09-05T15:51:58.506Z,3.63
2022-09-05T15:55:23.882Z,3.50
2022-09-05T15:58:52.778Z,3.47
2022-09-05T16:02:21.345Z,3.47
2022-09-05T16:10:34.971Z,3.45
2022-09-05T16:10:46.391Z,3.22
2022-09-05T16:13:36.791Z,3.50
2022-09-05T16:23:20.495Z,3.50
2022-09-05T16:23:32.259Z,4.20
2022-09-05T16:25:00.570Z,3.60
2022-09-05T16:28:28.354Z,3.65
2022-09-05T16:32:05.950Z,3.70
2022-09-05T16:35:28.643Z,3.40
2022-09-05T16:38:54.272Z,3.40
2022-09-05T16:42:23.928Z,3.80
2022-09-05T16:46:11.774Z,3.78
2022-09-05T16:49:43.163Z,4.05
2022-09-05T16:53:30.827Z,3.42
2022-09-05T16:56:57.538Z,3.65
2022-09-05T17:00:19.841Z,3.33
2022-09-05T17:03:53.961Z,3.22
2022-09-05T17:07:26.001Z,3.30
2022-09-05T17:10:57.816Z,3.40
2022-09-05T17:14:22.859Z,3.60
2022-09-05T17:18:22.343Z,3.42
2022-09-05T17:29:17.527Z,4.15
2022-09-05T17:29:28.940Z,3.53
2022-09-05T17:33:29.345Z,3.75
2022-09-05T17:37:33.701Z,3.22
2022-09-05T17:41:36.011Z,3.63
2022-09-05T17:45:07.703Z,4.68
2022-09-05T17:49:19.702Z,3.70
2022-09-05T17:53:26.800Z,4.05
2022-09-05T17:56:49.849Z,4.13
2022-09-05T18:00:58.258Z,3.97
2022-09-05T18:04:46.437Z,4.80
2022-09-05T18:08:12.121Z,3.92
2022-09-05T18:11:44.622Z,4.43
2022-09-05T18:15:16.269Z,4.07
2022-09-05T18:22:26.415Z,4.68
2022-09-05T18:25:55.225Z,4.55
2022-09-05T18:29:57.535Z,4.57
2022-09-05T18:34:04.792Z,5.25
2022-09-05T18:36:58.211Z,5.07
2022-09-05T18:40:46.262Z,5.10
2022-09-05T18:44:13.385Z,5.32
2022-09-05T18:47:53.221Z,4.93
2022-09-05T18:51:24.086Z,4.43
2022-09-05T18:55:07.796Z,4.47
2022-09-05T18:58:34.543Z,4.45
2022-09-05T19:02:01.145Z,4.68
2022-09-05T19:05:36.979Z,4.25
2022-09-05T19:09:01.479Z,4.10
2022-09-05T19:12:33.543Z,4.60
2022-09-05T19:16:42.581Z,4.45
2022-09-05T19:20:30.671Z,4.13
2022-09-05T19:23:56.459Z,4.32
2022-09-05T19:29:45.841Z,4.25
2022-09-05T19:36:46.483Z,4.40
2022-09-05T19:37:09.047Z,3.53
2022-09-05T19:40:15.712Z,4.20
2022-09-05T19:47:27.709Z,3.85
2022-09-05T19:47:37.193Z,4.50
2022-09-05T19:49:58.493Z,4.28
2022-09-05T19:53:21.639Z,4.03
2022-09-05T19:56:47.150Z,3.90
2022-09-05T20:00:11.539Z,3.65
2022-09-05T20:03:41.336Z,3.90
2022-09-05T20:07:16.444Z,3.38
2022-09-05T20:10:38.671Z,3.95
2022-09-05T20:14:18.613Z,3.58
2022-09-05T20:17:43.160Z,3.80
2022-09-05T20:21:12.214Z,3.40
2022-09-05T20:24:34.685Z,3.35
2022-09-05T20:28:00.229Z,3.58
2022-09-05T20:31:34.065Z,3.20
2022-09-05T20:39:26.608Z,3.17
2022-09-05T20:43:19.746Z,3.08
2022-09-05T20:43:22.465Z,3.10
2022-09-05T20:46:49.733Z,2.90
2022-09-05T20:54:07.263Z,2.70
2022-09-05T20:54:20.156Z,2.85
2022-09-05T20:57:30.292Z,2.50
2022-09-05T21:01:19.848Z,2.50
2022-09-05T21:04:38.437Z,2.40
2022-09-05T21:08:35.203Z,2.30
2022-09-05T21:12:00.960Z,2.35
2022-09-05T21:15:51.947Z,2.65
2022-09-05T21:19:07.755Z,2.20
2022-09-05T21:22:40.650Z,1.90
2022-09-05T21:26:08.291Z,2.20
2022-09-05T21:29:33.635Z,2.40
2022-09-05T21:32:59.584Z,2.30
2022-09-05T21:36:23.698Z,2.03
2022-09-05T21:39:59.652Z,1.90
2022-09-05T21:47:35.580Z,1.98
2022-09-05T21:47:43.656Z,1.77
2022-09-05T21:50:50.154Z,1.52
2022-09-05T21:55:59.511Z,1.77
2022-09-05T21:59:29.386Z,2.10
2022-09-05T22:01:44.893Z,1.60
2022-09-05T22:05:15.029Z,1.85
2022-09-05T22:08:39.862Z,1.63
2022-09-05T22:12:06.137Z,1.60
2022-09-05T22:15:48.467Z,1.30
2022-09-05T22:19:12.810Z,1.63
2022-09-05T22:22:38.043Z,1.40
2022-09-05T22:26:02.157Z,1.65
2022-09-05T22:29:24.574Z,2.03
2022-09-05T22:32:47.071Z,1.40
2022-09-05T22:36:10.606Z,1.75
2022-09-05T22:39:37.107Z,1.50
2022-09-05T22:43:01.860Z,1.58
2022-09-05T22:46:24.796Z,1.65
2022-09-05T22:49:46.352Z,1.33
2022-09-05T22:53:10.614Z,1.30
2022-09-05T22:56:34.127Z,1.30
2022-09-05T22:59:56.666Z,1.23
2022-09-05T23:03:18.366Z,1.25
2022-09-05T23:06:39.882Z,1.20
2022-09-05T23:10:04.077Z,1.45
2022-09-05T23:13:26.227Z,1.27
2022-09-05T23:16:48.116Z,1.05
2022-09-05T23:20:11.010Z,1.35
2022-09-05T23:23:33.105Z,1.35
2022-09-05T23:26:56.043Z,1.17
2022-09-05T23:30:18.379Z,1.42
2022-09-05T23:33:42.318Z,1.48
2022-09-05T23:37:03.999Z,1.30
2022-09-05T23:40:25.933Z,1.27
2022-09-05T23:43:49.212Z,1.23
2022-09-05T23:47:11.183Z,1.15
2022-09-05T23:50:33.130Z,1.00
2022-09-05T23:53:55.358Z,1.15
2022-09-05T23:57:22.214Z,1.33
